sensor_id;sensor_type;location;lat;lon;timestamp;P1;durP1;ratioP1;P2;durP2;ratioP2
82159;SDS011;71734;50.876;7.372;2023-08-31T00:00:11;6.72;;;2.97;;
82159;SDS011;71734;50.876;7.372;2023-08-31T00:02:38;5.95;;;2.92;;
82159;SDS011;71734;50.876;7.372;2023-08-31T00:05:05;7.55;;;3.08;;
82159;SDS011;71734;50.876;7.372;2023-08-31T00:07:32;8.00;;;2.97;;
82159;SDS011;71734;50.876;7.372;2023-08-31T00:10:00;5.55;;;2.75;;
82159;SDS011;71734;50.876;7.372;2023-08-31T00:12:34;8.18;;;3.30;;
82159;SDS011;71734;50.876;7.372;2023-08-31T00:15:01;5.35;;;2.65;;
82159;SDS011;71734;50.876;7.372;2023-08-31T00:17:29;6.97;;;2.75;;
82159;SDS011;71734;50.876;7.372;2023-08-31T00:19:56;7.93;;;3.22;;
82159;SDS011;71734;50.876;7.372;2023-08-31T00:22:22;7.68;;;2.55;;
82159;SDS011;71734;50.876;7.372;2023-08-31T00:24:49;7.65;;;3.00;;
82159;SDS011;71734;50.876;7.372;2023-08-31T00:27:17;8.25;;;2.72;;
82159;SDS011;71734;50.876;7.372;2023-08-31T00:29:43;6.15;;;2.63;;
82159;SDS011;71734;50.876;7.372;2023-08-31T00:34:40;7.07;;;2.83;;
82159;SDS011;71734;50.876;7.372;2023-08-31T00:37:07;7.53;;;2.70;;
82159;SDS011;71734;50.876;7.372;2023-08-31T00:39:33;6.57;;;3.28;;
82159;SDS011;71734;50.876;7.372;2023-08-31T00:42:00;6.78;;;2.80;;
82159;SDS011;71734;50.876;7.372;2023-08-31T00:44:28;8.23;;;2.80;;
82159;SDS011;71734;50.876;7.372;2023-08-31T00:46:54;6.70;;;2.55;;
82159;SDS011;71734;50.876;7.372;2023-08-31T00:49:21;8.27;;;2.70;;
82159;SDS011;71734;50.876;7.372;2023-08-31T00:51:48;8.10;;;2.88;;
82159;SDS011;71734;50.876;7.372;2023-08-31T00:54:15;8.35;;;2.75;;
82159;SDS011;71734;50.876;7.372;2023-08-31T00:56:43;6.05;;;2.60;;
82159;SDS011;71734;50.876;7.372;2023-08-31T00:59:09;9.20;;;2.80;;
82159;SDS011;71734;50.876;7.372;2023-08-31T01:01:39;6.15;;;2.42;;
82159;SDS011;71734;50.876;7.372;2023-08-31T01:04:12;9.52;;;3.00;;
82159;SDS011;71734;50.876;7.372;2023-08-31T01:06:47;6.60;;;2.55;;
82159;SDS011;71734;50.876;7.372;2023-08-31T01:09:21;7.32;;;2.50;;
82159;SDS011;71734;50.876;7.372;2023-08-31T01:11:57;7.20;;;2.92;;
82159;SDS011;71734;50.876;7.372;2023-08-31T01:14:39;7.50;;;2.78;;
82159;SDS011;71734;50.876;7.372;2023-08-31T01:17:12;5.85;;;2.58;;
82159;SDS011;71734;50.876;7.372;2023-08-31T01:19:44;6.45;;;2.88;;
82159;SDS011;71734;50.876;7.372;2023-08-31T01:22:14;8.90;;;3.45;;
82159;SDS011;71734;50.876;7.372;2023-08-31T01:24:48;8.25;;;2.78;;
82159;SDS011;71734;50.876;7.372;2023-08-31T01:27:15;6.15;;;2.53;;
82159;SDS011;71734;50.876;7.372;2023-08-31T01:29:42;5.88;;;2.22;;
82159;SDS011;71734;50.876;7.372;2023-08-31T01:32:08;7.38;;;2.75;;
82159;SDS011;71734;50.876;7.372;2023-08-31T01:34:35;6.00;;;2.50;;
82159;SDS011;71734;50.876;7.372;2023-08-31T01:37:03;6.50;;;2.25;;
82159;SDS011;71734;50.876;7.372;2023-08-31T01:42:09;6.80;;;2.40;;
82159;SDS011;71734;50.876;7.372;2023-08-31T01:44:39;6.57;;;2.35;;
82159;SDS011;71734;50.876;7.372;2023-08-31T01:47:07;7.72;;;2.85;;
82159;SDS011;71734;50.876;7.372;2023-08-31T01:49:35;7.07;;;2.45;;
82159;SDS011;71734;50.876;7.372;2023-08-31T01:52:03;6.55;;;2.55;;
82159;SDS011;71734;50.876;7.372;2023-08-31T01:54:29;5.78;;;2.10;;
82159;SDS011;71734;50.876;7.372;2023-08-31T01:56:56;5.43;;;2.22;;
82159;SDS011;71734;50.876;7.372;2023-08-31T01:59:24;7.88;;;2.67;;
82159;SDS011;71734;50.876;7.372;2023-08-31T02:01:51;6.50;;;2.63;;
82159;SDS011;71734;50.876;7.372;2023-08-31T02:04:17;7.53;;;2.70;;
82159;SDS011;71734;50.876;7.372;2023-08-31T02:06:44;5.63;;;2.30;;
82159;SDS011;71734;50.876;7.372;2023-08-31T02:09:10;5.63;;;2.33;;
82159;SDS011;71734;50.876;7.372;2023-08-31T02:11:36;5.93;;;2.50;;
82159;SDS011;71734;50.876;7.372;2023-08-31T02:14:03;6.55;;;2.55;;
82159;SDS011;71734;50.876;7.372;2023-08-31T02:16:31;6.22;;;2.17;;
82159;SDS011;71734;50.876;7.372;2023-08-31T02:18:58;7.20;;;3.15;;
82159;SDS011;71734;50.876;7.372;2023-08-31T02:21:25;8.18;;;2.38;;
82159;SDS011;71734;50.876;7.372;2023-08-31T02:23:51;7.22;;;3.45;;
82159;SDS011;71734;50.876;7.372;2023-08-31T02:26:17;5.75;;;2.13;;
82159;SDS011;71734;50.876;7.372;2023-08-31T02:28:44;6.63;;;2.33;;
82159;SDS011;71734;50.876;7.372;2023-08-31T02:31:10;5.53;;;2.42;;
82159;SDS011;71734;50.876;7.372;2023-08-31T02:33:38;6.20;;;2.40;;
82159;SDS011;71734;50.876;7.372;2023-08-31T02:36:05;6.47;;;2.53;;
82159;SDS011;71734;50.876;7.372;2023-08-31T02:38:31;6.20;;;2.53;;
82159;SDS011;71734;50.876;7.372;2023-08-31T02:40:58;7.95;;;2.35;;
82159;SDS011;71734;50.876;7.372;2023-08-31T02:43:24;7.35;;;2.50;;
82159;SDS011;71734;50.876;7.372;2023-08-31T02:45:58;7.15;;;2.42;;
82159;SDS011;71734;50.876;7.372;2023-08-31T02:48:25;8.55;;;2.63;;
82159;SDS011;71734;50.876;7.372;2023-08-31T02:50:54;5.72;;;2.60;;
82159;SDS011;71734;50.876;7.372;2023-08-31T02:53:20;7.85;;;2.30;;
82159;SDS011;71734;50.876;7.372;2023-08-31T02:55:47;7.60;;;2.72;;
82159;SDS011;71734;50.876;7.372;2023-08-31T02:58:15;9.60;;;2.42;;
82159;SDS011;71734;50.876;7.372;2023-08-31T03:00:42;8.50;;;2.60;;
82159;SDS011;71734;50.876;7.372;2023-08-31T03:03:10;7.30;;;2.72;;
82159;SDS011;71734;50.876;7.372;2023-08-31T03:05:37;6.10;;;2.40;;
82159;SDS011;71734;50.876;7.372;2023-08-31T03:08:05;5.90;;;2.67;;
82159;SDS011;71734;50.876;7.372;2023-08-31T03:10:31;7.07;;;2.58;;
82159;SDS011;71734;50.876;7.372;2023-08-31T03:12:58;6.70;;;2.60;;
82159;SDS011;71734;50.876;7.372;2023-08-31T03:15:24;5.95;;;2.65;;
82159;SDS011;71734;50.876;7.372;2023-08-31T03:17:51;6.32;;;2.60;;
82159;SDS011;71734;50.876;7.372;2023-08-31T03:20:17;7.80;;;2.78;;
82159;SDS011;71734;50.876;7.372;2023-08-31T03:22:44;7.15;;;2.70;;
82159;SDS011;71734;50.876;7.372;2023-08-31T03:25:12;8.30;;;3.03;;
82159;SDS011;71734;50.876;7.372;2023-08-31T03:27:38;6.38;;;2.40;;
82159;SDS011;71734;50.876;7.372;2023-08-31T03:30:05;8.00;;;2.50;;
82159;SDS011;71734;50.876;7.372;2023-08-31T03:32:32;6.05;;;2.35;;
82159;SDS011;71734;50.876;7.372;2023-08-31T03:34:59;5.30;;;2.30;;
82159;SDS011;71734;50.876;7.372;2023-08-31T03:37:27;7.10;;;2.38;;
82159;SDS011;71734;50.876;7.372;2023-08-31T03:39:54;5.85;;;2.30;;
82159;SDS011;71734;50.876;7.372;2023-08-31T03:42:22;7.68;;;2.40;;
82159;SDS011;71734;50.876;7.372;2023-08-31T03:44:48;6.13;;;2.40;;
82159;SDS011;71734;50.876;7.372;2023-08-31T03:47:15;6.00;;;2.63;;
82159;SDS011;71734;50.876;7.372;2023-08-31T03:49:41;5.90;;;2.25;;
82159;SDS011;71734;50.876;7.372;2023-08-31T03:52:07;5.50;;;2.30;;
82159;SDS011;71734;50.876;7.372;2023-08-31T03:54:34;5.80;;;2.40;;
82159;SDS011;71734;50.876;7.372;2023-08-31T03:57:00;7.07;;;2.42;;
82159;SDS011;71734;50.876;7.372;2023-08-31T03:59:28;7.28;;;2.95;;
82159;SDS011;71734;50.876;7.372;2023-08-31T04:01:55;9.02;;;2.92;;
82159;SDS011;71734;50.876;7.372;2023-08-31T04:04:21;7.05;;;2.40;;
82159;SDS011;71734;50.876;7.372;2023-08-31T04:06:48;6.53;;;2.60;;
82159;SDS011;71734;50.876;7.372;2023-08-31T04:09:14;7.95;;;2.60;;
82159;SDS011;71734;50.876;7.372;2023-08-31T04:11:43;6.70;;;2.20;;
82159;SDS011;71734;50.876;7.372;2023-08-31T04:14:10;5.95;;;2.40;;
82159;SDS011;71734;50.876;7.372;2023-08-31T04:16:37;5.50;;;2.38;;
82159;SDS011;71734;50.876;7.372;2023-08-31T04:19:04;6.70;;;2.80;;
82159;SDS011;71734;50.876;7.372;2023-08-31T04:21:30;6.45;;;2.55;;
82159;SDS011;71734;50.876;7.372;2023-08-31T04:23:57;8.15;;;3.10;;
82159;SDS011;71734;50.876;7.372;2023-08-31T04:26:24;6.50;;;2.70;;
82159;SDS011;71734;50.876;7.372;2023-08-31T04:28:51;7.22;;;2.60;;
82159;SDS011;71734;50.876;7.372;2023-08-31T04:31:17;7.10;;;2.78;;
82159;SDS011;71734;50.876;7.372;2023-08-31T04:33:45;8.18;;;2.70;;
82159;SDS011;71734;50.876;7.372;2023-08-31T04:36:12;6.97;;;2.95;;
82159;SDS011;71734;50.876;7.372;2023-08-31T04:38:38;6.00;;;2.58;;
82159;SDS011;71734;50.876;7.372;2023-08-31T04:41:05;7.68;;;2.55;;
82159;SDS011;71734;50.876;7.372;2023-08-31T04:43:31;6.38;;;2.83;;
82159;SDS011;71734;50.876;7.372;2023-08-31T04:45:58;6.68;;;2.70;;
82159;SDS011;71734;50.876;7.372;2023-08-31T04:48:24;6.82;;;3.00;;
82159;SDS011;71734;50.876;7.372;2023-08-31T04:50:55;5.68;;;2.67;;
82159;SDS011;71734;50.876;7.372;2023-08-31T04:53:23;6.47;;;2.88;;
82159;SDS011;71734;50.876;7.372;2023-08-31T04:55:49;7.50;;;3.10;;
82159;SDS011;71734;50.876;7.372;2023-08-31T04:58:16;8.13;;;3.13;;
82159;SDS011;71734;50.876;7.372;2023-08-31T05:00:42;8.68;;;2.97;;
82159;SDS011;71734;50.876;7.372;2023-08-31T05:03:09;7.03;;;3.17;;
82159;SDS011;71734;50.876;7.372;2023-08-31T05:05:36;7.10;;;3.13;;
82159;SDS011;71734;50.876;7.372;2023-08-31T05:08:04;6.60;;;2.78;;
82159;SDS011;71734;50.876;7.372;2023-08-31T05:10:31;6.30;;;3.00;;
82159;SDS011;71734;50.876;7.372;2023-08-31T05:12:58;6.93;;;3.28;;
82159;SDS011;71734;50.876;7.372;2023-08-31T05:15:24;6.65;;;2.88;;
82159;SDS011;71734;50.876;7.372;2023-08-31T05:17:53;7.95;;;3.03;;
82159;SDS011;71734;50.876;7.372;2023-08-31T05:20:21;7.07;;;2.67;;
82159;SDS011;71734;50.876;7.372;2023-08-31T05:22:48;7.25;;;3.03;;
82159;SDS011;71734;50.876;7.372;2023-08-31T05:25:16;6.78;;;2.80;;
82159;SDS011;71734;50.876;7.372;2023-08-31T05:27:42;5.70;;;2.70;;
82159;SDS011;71734;50.876;7.372;2023-08-31T05:30:09;6.50;;;2.58;;
82159;SDS011;71734;50.876;7.372;2023-08-31T05:32:37;7.40;;;2.88;;
82159;SDS011;71734;50.876;7.372;2023-08-31T05:35:03;6.13;;;2.70;;
82159;SDS011;71734;50.876;7.372;2023-08-31T05:37:31;5.18;;;2.67;;
82159;SDS011;71734;50.876;7.372;2023-08-31T05:40:00;7.88;;;3.10;;
82159;SDS011;71734;50.876;7.372;2023-08-31T05:42:32;6.93;;;2.90;;
82159;SDS011;71734;50.876;7.372;2023-08-31T05:44:58;6.20;;;2.97;;
82159;SDS011;71734;50.876;7.372;2023-08-31T05:47:25;8.23;;;3.10;;
82159;SDS011;71734;50.876;7.372;2023-08-31T05:49:51;5.50;;;2.50;;
82159;SDS011;71734;50.876;7.372;2023-08-31T05:52:17;7.90;;;2.65;;
82159;SDS011;71734;50.876;7.372;2023-08-31T05:54:44;5.90;;;2.97;;
82159;SDS011;71734;50.876;7.372;2023-08-31T05:57:10;7.50;;;2.60;;
82159;SDS011;71734;50.876;7.372;2023-08-31T05:59:38;6.15;;;2.65;;
82159;SDS011;71734;50.876;7.372;2023-08-31T06:02:05;7.32;;;2.55;;
82159;SDS011;71734;50.876;7.372;2023-08-31T06:04:33;6.32;;;2.55;;
82159;SDS011;71734;50.876;7.372;2023-08-31T06:07:00;5.72;;;2.00;;
82159;SDS011;71734;50.876;7.372;2023-08-31T06:09:26;6.38;;;2.72;;
82159;SDS011;71734;50.876;7.372;2023-08-31T06:11:53;5.95;;;2.35;;
82159;SDS011;71734;50.876;7.372;2023-08-31T06:14:19;5.95;;;2.33;;
82159;SDS011;71734;50.876;7.372;2023-08-31T06:16:47;5.50;;;2.40;;
82159;SDS011;71734;50.876;7.372;2023-08-31T06:19:13;5.85;;;2.40;;
82159;SDS011;71734;50.876;7.372;2023-08-31T06:21:42;6.28;;;2.30;;
82159;SDS011;71734;50.876;7.372;2023-08-31T06:24:12;5.40;;;2.22;;
82159;SDS011;71734;50.876;7.372;2023-08-31T06:26:39;5.85;;;2.20;;
82159;SDS011;71734;50.876;7.372;2023-08-31T06:29:08;5.80;;;2.63;;
82159;SDS011;71734;50.876;7.372;2023-08-31T06:31:35;4.97;;;2.25;;
82159;SDS011;71734;50.876;7.372;2023-08-31T06:34:09;6.90;;;3.05;;
82159;SDS011;71734;50.876;7.372;2023-08-31T06:36:42;6.80;;;2.30;;
82159;SDS011;71734;50.876;7.372;2023-08-31T06:39:10;5.90;;;2.40;;
82159;SDS011;71734;50.876;7.372;2023-08-31T06:41:36;6.45;;;2.30;;
82159;SDS011;71734;50.876;7.372;2023-08-31T06:44:06;6.97;;;2.35;;
82159;SDS011;71734;50.876;7.372;2023-08-31T06:46:33;8.68;;;2.72;;
82159;SDS011;71734;50.876;7.372;2023-08-31T06:49:03;9.18;;;2.72;;
82159;SDS011;71734;50.876;7.372;2023-08-31T06:51:31;6.15;;;2.10;;
82159;SDS011;71734;50.876;7.372;2023-08-31T06:53:57;5.45;;;2.25;;
82159;SDS011;71734;50.876;7.372;2023-08-31T06:56:31;6.82;;;2.30;;
82159;SDS011;71734;50.876;7.372;2023-08-31T06:58:57;7.22;;;2.30;;
82159;SDS011;71734;50.876;7.372;2023-08-31T07:01:24;6.53;;;2.45;;
82159;SDS011;71734;50.876;7.372;2023-08-31T07:03:52;8.23;;;2.38;;
82159;SDS011;71734;50.876;7.372;2023-08-31T07:06:18;5.97;;;2.50;;
82159;SDS011;71734;50.876;7.372;2023-08-31T07:08:46;6.68;;;2.08;;
82159;SDS011;71734;50.876;7.372;2023-08-31T07:11:12;6.20;;;2.50;;
82159;SDS011;71734;50.876;7.372;2023-08-31T07:13:39;6.07;;;2.05;;
82159;SDS011;71734;50.876;7.372;2023-08-31T07:16:05;7.13;;;2.30;;
82159;SDS011;71734;50.876;7.372;2023-08-31T07:18:34;6.90;;;2.38;;
82159;SDS011;71734;50.876;7.372;2023-08-31T07:21:01;5.78;;;2.10;;
82159;SDS011;71734;50.876;7.372;2023-08-31T07:23:27;5.55;;;2.08;;
82159;SDS011;71734;50.876;7.372;2023-08-31T07:25:57;5.57;;;1.90;;
82159;SDS011;71734;50.876;7.372;2023-08-31T07:28:24;7.47;;;2.17;;
82159;SDS011;71734;50.876;7.372;2023-08-31T07:30:59;6.65;;;2.20;;
82159;SDS011;71734;50.876;7.372;2023-08-31T07:33:26;5.30;;;2.15;;
82159;SDS011;71734;50.876;7.372;2023-08-31T07:35:53;6.38;;;2.03;;
82159;SDS011;71734;50.876;7.372;2023-08-31T07:38:19;6.75;;;2.08;;
82159;SDS011;71734;50.876;7.372;2023-08-31T07:40:46;6.35;;;2.10;;
82159;SDS011;71734;50.876;7.372;2023-08-31T07:43:15;6.13;;;1.80;;
82159;SDS011;71734;50.876;7.372;2023-08-31T07:45:41;8.27;;;2.20;;
82159;SDS011;71734;50.876;7.372;2023-08-31T07:48:07;5.75;;;2.22;;
82159;SDS011;71734;50.876;7.372;2023-08-31T07:50:34;7.43;;;2.30;;
82159;SDS011;71734;50.876;7.372;2023-08-31T07:53:00;6.65;;;2.40;;
82159;SDS011;71734;50.876;7.372;2023-08-31T07:55:27;5.32;;;1.90;;
82159;SDS011;71734;50.876;7.372;2023-08-31T07:57:56;6.90;;;2.33;;
82159;SDS011;71734;50.876;7.372;2023-08-31T08:00:23;6.60;;;1.90;;
82159;SDS011;71734;50.876;7.372;2023-08-31T08:02:50;7.10;;;2.20;;
82159;SDS011;71734;50.876;7.372;2023-08-31T08:05:16;6.32;;;2.42;;
82159;SDS011;71734;50.876;7.372;2023-08-31T08:07:45;6.10;;;2.10;;
82159;SDS011;71734;50.876;7.372;2023-08-31T08:10:13;6.45;;;2.03;;
82159;SDS011;71734;50.876;7.372;2023-08-31T08:12:40;5.90;;;2.08;;
82159;SDS011;71734;50.876;7.372;2023-08-31T08:15:08;6.40;;;2.55;;
82159;SDS011;71734;50.876;7.372;2023-08-31T08:17:36;11.63;;;2.50;;
82159;SDS011;71734;50.876;7.372;2023-08-31T08:20:03;7.13;;;2.38;;
82159;SDS011;71734;50.876;7.372;2023-08-31T08:22:31;5.53;;;2.08;;
82159;SDS011;71734;50.876;7.372;2023-08-31T08:24:57;5.88;;;2.00;;
82159;SDS011;71734;50.876;7.372;2023-08-31T08:27:24;7.75;;;2.03;;
82159;SDS011;71734;50.876;7.372;2023-08-31T08:29:53;5.78;;;2.00;;
82159;SDS011;71734;50.876;7.372;2023-08-31T08:32:19;5.43;;;1.83;;
82159;SDS011;71734;50.876;7.372;2023-08-31T08:34:47;6.30;;;2.10;;
82159;SDS011;71734;50.876;7.372;2023-08-31T08:37:13;5.20;;;1.80;;
82159;SDS011;71734;50.876;7.372;2023-08-31T08:39:40;6.40;;;2.00;;
82159;SDS011;71734;50.876;7.372;2023-08-31T08:42:06;5.03;;;1.70;;
82159;SDS011;71734;50.876;7.372;2023-08-31T08:44:37;6.97;;;1.70;;
82159;SDS011;71734;50.876;7.372;2023-08-31T08:47:04;5.88;;;1.73;;
82159;SDS011;71734;50.876;7.372;2023-08-31T08:49:30;5.07;;;1.55;;
82159;SDS011;71734;50.876;7.372;2023-08-31T08:51:59;5.70;;;1.88;;
82159;SDS011;71734;50.876;7.372;2023-08-31T08:54:28;6.13;;;1.52;;
82159;SDS011;71734;50.876;7.372;2023-08-31T08:56:54;7.10;;;1.70;;
82159;SDS011;71734;50.876;7.372;2023-08-31T08:59:20;4.88;;;1.45;;
82159;SDS011;71734;50.876;7.372;2023-08-31T09:01:47;3.97;;;1.30;;
82159;SDS011;71734;50.876;7.372;2023-08-31T09:04:14;3.88;;;1.45;;
82159;SDS011;71734;50.876;7.372;2023-08-31T09:06:41;5.70;;;1.60;;
82159;SDS011;71734;50.876;7.372;2023-08-31T09:09:10;6.30;;;1.70;;
82159;SDS011;71734;50.876;7.372;2023-08-31T09:11:37;4.80;;;1.50;;
82159;SDS011;71734;50.876;7.372;2023-08-31T09:14:13;6.57;;;1.70;;
82159;SDS011;71734;50.876;7.372;2023-08-31T09:16:43;4.75;;;1.40;;
82159;SDS011;71734;50.876;7.372;2023-08-31T09:19:17;4.30;;;1.30;;
82159;SDS011;71734;50.876;7.372;2023-08-31T09:21:47;7.72;;;1.90;;
82159;SDS011;71734;50.876;7.372;2023-08-31T09:24:15;6.75;;;1.45;;
82159;SDS011;71734;50.876;7.372;2023-08-31T09:26:43;4.55;;;1.40;;
82159;SDS011;71734;50.876;7.372;2023-08-31T09:29:11;5.35;;;1.50;;
82159;SDS011;71734;50.876;7.372;2023-08-31T09:31:39;5.47;;;1.30;;
82159;SDS011;71734;50.876;7.372;2023-08-31T09:34:08;8.10;;;1.60;;
82159;SDS011;71734;50.876;7.372;2023-08-31T09:36:34;5.03;;;1.80;;
82159;SDS011;71734;50.876;7.372;2023-08-31T09:39:02;4.75;;;1.50;;
82159;SDS011;71734;50.876;7.372;2023-08-31T09:41:31;5.22;;;1.58;;
82159;SDS011;71734;50.876;7.372;2023-08-31T09:43:59;5.07;;;1.30;;
82159;SDS011;71734;50.876;7.372;2023-08-31T09:46:40;4.88;;;1.40;;
82159;SDS011;71734;50.876;7.372;2023-08-31T09:49:07;3.50;;;1.20;;
82159;SDS011;71734;50.876;7.372;2023-08-31T09:51:34;5.60;;;1.42;;
82159;SDS011;71734;50.876;7.372;2023-08-31T09:54:05;5.75;;;1.25;;
82159;SDS011;71734;50.876;7.372;2023-08-31T09:56:34;3.70;;;1.23;;
82159;SDS011;71734;50.876;7.372;2023-08-31T09:59:03;4.15;;;1.25;;
82159;SDS011;71734;50.876;7.372;2023-08-31T10:01:30;6.28;;;1.40;;
82159;SDS011;71734;50.876;7.372;2023-08-31T10:03:58;4.38;;;1.27;;
82159;SDS011;71734;50.876;7.372;2023-08-31T10:06:26;3.35;;;1.20;;
82159;SDS011;71734;50.876;7.372;2023-08-31T10:08:54;4.32;;;1.20;;
82159;SDS011;71734;50.876;7.372;2023-08-31T10:11:21;4.40;;;1.13;;
82159;SDS011;71734;50.876;7.372;2023-08-31T10:13:51;5.10;;;1.20;;
82159;SDS011;71734;50.876;7.372;2023-08-31T10:16:19;4.57;;;1.55;;
82159;SDS011;71734;50.876;7.372;2023-08-31T10:18:46;3.83;;;1.10;;
82159;SDS011;71734;50.876;7.372;2023-08-31T10:21:15;2.88;;;1.00;;
82159;SDS011;71734;50.876;7.372;2023-08-31T10:23:44;2.90;;;1.00;;
82159;SDS011;71734;50.876;7.372;2023-08-31T10:26:10;4.82;;;1.05;;
82159;SDS011;71734;50.876;7.372;2023-08-31T10:28:41;4.50;;;1.10;;
82159;SDS011;71734;50.876;7.372;2023-08-31T10:31:10;3.60;;;0.95;;
82159;SDS011;71734;50.876;7.372;2023-08-31T10:33:42;2.92;;;0.90;;
82159;SDS011;71734;50.876;7.372;2023-08-31T10:36:09;4.18;;;1.20;;
82159;SDS011;71734;50.876;7.372;2023-08-31T10:38:37;3.58;;;1.05;;
82159;SDS011;71734;50.876;7.372;2023-08-31T10:41:17;3.75;;;0.93;;
82159;SDS011;71734;50.876;7.372;2023-08-31T10:43:44;3.40;;;1.20;;
82159;SDS011;71734;50.876;7.372;2023-08-31T10:46:28;3.70;;;1.23;;
82159;SDS011;71734;50.876;7.372;2023-08-31T10:48:56;3.15;;;1.10;;
82159;SDS011;71734;50.876;7.372;2023-08-31T10:51:24;5.15;;;1.20;;
82159;SDS011;71734;50.876;7.372;2023-08-31T10:53:51;3.05;;;0.93;;
82159;SDS011;71734;50.876;7.372;2023-08-31T10:56:18;4.63;;;1.10;;
82159;SDS011;71734;50.876;7.372;2023-08-31T10:58:58;4.97;;;1.30;;
82159;SDS011;71734;50.876;7.372;2023-08-31T11:04:26;4.40;;;1.00;;
82159;SDS011;71734;50.876;7.372;2023-08-31T11:07:12;3.88;;;0.98;;
82159;SDS011;71734;50.876;7.372;2023-08-31T11:09:39;4.10;;;1.00;;
82159;SDS011;71734;50.876;7.372;2023-08-31T11:12:06;3.65;;;1.10;;
82159;SDS011;71734;50.876;7.372;2023-08-31T11:14:33;4.18;;;1.15;;
82159;SDS011;71734;50.876;7.372;2023-08-31T11:17:01;3.53;;;1.13;;
82159;SDS011;71734;50.876;7.372;2023-08-31T11:19:30;5.05;;;1.15;;
82159;SDS011;71734;50.876;7.372;2023-08-31T11:21:57;3.40;;;1.02;;
82159;SDS011;71734;50.876;7.372;2023-08-31T11:24:24;5.03;;;1.00;;
82159;SDS011;71734;50.876;7.372;2023-08-31T11:26:50;4.32;;;1.25;;
82159;SDS011;71734;50.876;7.372;2023-08-31T11:29:17;3.80;;;1.30;;
82159;SDS011;71734;50.876;7.372;2023-08-31T11:31:43;3.35;;;1.10;;
82159;SDS011;71734;50.876;7.372;2023-08-31T11:34:13;4.93;;;1.10;;
82159;SDS011;71734;50.876;7.372;2023-08-31T11:39:08;4.55;;;1.27;;
82159;SDS011;71734;50.876;7.372;2023-08-31T11:41:35;4.88;;;1.10;;
82159;SDS011;71734;50.876;7.372;2023-08-31T11:44:05;3.65;;;1.08;;
82159;SDS011;71734;50.876;7.372;2023-08-31T11:46:33;5.43;;;1.40;;
82159;SDS011;71734;50.876;7.372;2023-08-31T11:49:00;4.18;;;1.20;;
82159;SDS011;71734;50.876;7.372;2023-08-31T11:51:30;4.45;;;1.20;;
82159;SDS011;71734;50.876;7.372;2023-08-31T11:53:58;6.03;;;1.55;;
82159;SDS011;71734;50.876;7.372;2023-08-31T11:56:27;3.15;;;1.20;;
82159;SDS011;71734;50.876;7.372;2023-08-31T11:58:54;4.00;;;1.20;;
82159;SDS011;71734;50.876;7.372;2023-08-31T12:01:21;3.42;;;1.10;;
82159;SDS011;71734;50.876;7.372;2023-08-31T12:03:48;6.97;;;1.65;;
82159;SDS011;71734;50.876;7.372;2023-08-31T12:06:15;8.10;;;2.22;;
82159;SDS011;71734;50.876;7.372;2023-08-31T12:08:44;4.80;;;1.50;;
82159;SDS011;71734;50.876;7.372;2023-08-31T12:11:11;4.70;;;1.40;;
82159;SDS011;71734;50.876;7.372;2023-08-31T12:13:38;3.67;;;1.50;;
82159;SDS011;71734;50.876;7.372;2023-08-31T12:16:11;5.75;;;1.30;;
82159;SDS011;71734;50.876;7.372;2023-08-31T12:18:38;4.68;;;1.35;;
82159;SDS011;71734;50.876;7.372;2023-08-31T12:21:05;5.38;;;1.70;;
82159;SDS011;71734;50.876;7.372;2023-08-31T12:23:32;4.25;;;1.52;;
82159;SDS011;71734;50.876;7.372;2023-08-31T12:26:00;6.32;;;1.65;;
82159;SDS011;71734;50.876;7.372;2023-08-31T12:28:27;4.75;;;1.30;;
82159;SDS011;71734;50.876;7.372;2023-08-31T12:30:54;5.50;;;1.50;;
82159;SDS011;71734;50.876;7.372;2023-08-31T12:33:21;3.95;;;1.40;;
82159;SDS011;71734;50.876;7.372;2023-08-31T12:35:48;5.47;;;1.20;;
82159;SDS011;71734;50.876;7.372;2023-08-31T12:38:15;3.75;;;1.13;;
82159;SDS011;71734;50.876;7.372;2023-08-31T12:40:41;5.18;;;1.35;;
82159;SDS011;71734;50.876;7.372;2023-08-31T12:43:09;2.88;;;1.27;;
82159;SDS011;71734;50.876;7.372;2023-08-31T12:45:36;3.78;;;1.20;;
82159;SDS011;71734;50.876;7.372;2023-08-31T12:48:02;6.22;;;1.50;;
82159;SDS011;71734;50.876;7.372;2023-08-31T12:50:29;3.08;;;1.20;;
82159;SDS011;71734;50.876;7.372;2023-08-31T12:52:56;5.22;;;1.17;;
82159;SDS011;71734;50.876;7.372;2023-08-31T12:55:23;3.83;;;1.10;;
82159;SDS011;71734;50.876;7.372;2023-08-31T12:57:50;3.83;;;1.10;;
82159;SDS011;71734;50.876;7.372;2023-08-31T13:00:20;4.25;;;1.10;;
82159;SDS011;71734;50.876;7.372;2023-08-31T13:02:46;4.63;;;1.27;;
82159;SDS011;71734;50.876;7.372;2023-08-31T13:05:13;3.13;;;1.17;;
82159;SDS011;71734;50.876;7.372;2023-08-31T13:07:39;4.45;;;1.17;;
82159;SDS011;71734;50.876;7.372;2023-08-31T13:10:06;5.82;;;1.27;;
82159;SDS011;71734;50.876;7.372;2023-08-31T13:12:33;5.30;;;1.20;;
82159;SDS011;71734;50.876;7.372;2023-08-31T13:15:00;4.18;;;1.20;;
82159;SDS011;71734;50.876;7.372;2023-08-31T13:17:28;3.67;;;1.20;;
82159;SDS011;71734;50.876;7.372;2023-08-31T13:19:55;6.13;;;1.65;;
82159;SDS011;71734;50.876;7.372;2023-08-31T13:22:23;5.50;;;1.60;;
82159;SDS011;71734;50.876;7.372;2023-08-31T13:24:49;4.88;;;1.40;;
82159;SDS011;71734;50.876;7.372;2023-08-31T13:27:16;4.03;;;1.30;;
82159;SDS011;71734;50.876;7.372;2023-08-31T13:29:43;4.57;;;1.45;;
82159;SDS011;71734;50.876;7.372;2023-08-31T13:32:10;4.95;;;1.67;;
82159;SDS011;71734;50.876;7.372;2023-08-31T13:34:37;4.72;;;1.38;;
82159;SDS011;71734;50.876;7.372;2023-08-31T13:37:04;5.22;;;1.67;;
82159;SDS011;71734;50.876;7.372;2023-08-31T13:39:30;4.97;;;1.40;;
82159;SDS011;71734;50.876;7.372;2023-08-31T13:41:57;5.43;;;1.45;;
82159;SDS011;71734;50.876;7.372;2023-08-31T13:44:24;4.05;;;1.27;;
82159;SDS011;71734;50.876;7.372;2023-08-31T13:46:50;4.15;;;1.63;;
82159;SDS011;71734;50.876;7.372;2023-08-31T13:49:16;5.60;;;1.55;;
82159;SDS011;71734;50.876;7.372;2023-08-31T13:51:44;4.72;;;1.50;;
82159;SDS011;71734;50.876;7.372;2023-08-31T13:54:11;6.22;;;1.60;;
82159;SDS011;71734;50.876;7.372;2023-08-31T13:56:37;7.15;;;2.35;;
82159;SDS011;71734;50.876;7.372;2023-08-31T13:59:04;4.50;;;1.55;;
82159;SDS011;71734;50.876;7.372;2023-08-31T14:01:30;4.18;;;1.63;;
82159;SDS011;71734;50.876;7.372;2023-08-31T14:03:57;5.30;;;1.75;;
82159;SDS011;71734;50.876;7.372;2023-08-31T14:06:23;6.15;;;1.83;;
82159;SDS011;71734;50.876;7.372;2023-08-31T14:08:51;6.65;;;1.90;;
82159;SDS011;71734;50.876;7.372;2023-08-31T14:11:18;6.53;;;1.70;;
82159;SDS011;71734;50.876;7.372;2023-08-31T14:13:45;5.50;;;2.10;;
82159;SDS011;71734;50.876;7.372;2023-08-31T14:16:11;5.53;;;2.00;;
82159;SDS011;71734;50.876;7.372;2023-08-31T14:18:38;6.78;;;2.15;;
82159;SDS011;71734;50.876;7.372;2023-08-31T14:21:04;6.30;;;2.22;;
82159;SDS011;71734;50.876;7.372;2023-08-31T14:23:31;5.35;;;2.30;;
82159;SDS011;71734;50.876;7.372;2023-08-31T14:26:02;6.15;;;1.90;;
82159;SDS011;71734;50.876;7.372;2023-08-31T14:28:29;6.32;;;2.03;;
82159;SDS011;71734;50.876;7.372;2023-08-31T14:30:55;6.07;;;2.15;;
82159;SDS011;71734;50.876;7.372;2023-08-31T14:33:22;5.40;;;1.90;;
82159;SDS011;71734;50.876;7.372;2023-08-31T14:35:49;6.20;;;2.20;;
82159;SDS011;71734;50.876;7.372;2023-08-31T14:38:19;5.97;;;2.38;;
82159;SDS011;71734;50.876;7.372;2023-08-31T14:40:46;6.18;;;2.22;;
82159;SDS011;71734;50.876;7.372;2023-08-31T14:43:14;5.45;;;2.33;;
82159;SDS011;71734;50.876;7.372;2023-08-31T14:45:40;6.30;;;2.85;;
82159;SDS011;71734;50.876;7.372;2023-08-31T14:48:08;7.57;;;3.20;;
82159;SDS011;71734;50.876;7.372;2023-08-31T14:50:34;8.30;;;2.78;;
82159;SDS011;71734;50.876;7.372;2023-08-31T14:53:01;6.38;;;2.75;;
82159;SDS011;71734;50.876;7.372;2023-08-31T14:55:27;6.38;;;2.88;;
82159;SDS011;71734;50.876;7.372;2023-08-31T14:57:54;6.82;;;2.80;;
82159;SDS011;71734;50.876;7.372;2023-08-31T15:00:21;7.03;;;3.08;;